Terminal Aerodrome Forecast
Issued by NWS Denver/Boulder, CO

Home | Current Version | Previous Version | Text Only | Print | Product List | Glossary On
Versions: 1 2 3 4 5 6 7 8 9 10 11 12 13 14 15 16 17 18 19 20 21 22 23 24 25 26 27 28 29 30 31 32 33 34 35
000
FTUS45 KBOU 220038 AAA
TAFDEN
TAF AMD
KDEN 220038Z 2201/2306 23012G20KT P6SM SCT100 BKN220
     FM220130 33010KT P6SM SCT110 BKN200
     FM220300 22010KT P6SM FEW110 BKN200
     FM221600 03013G21KT P6SM FEW080 SCT200
     FM222100 06015G22KT P6SM SCT080 BKN200 PROB30 2223/2304
      VRB15G30KT -TSRA BKN060CB
     FM230400 08012KT P6SM VCSH SCT030 BKN060=

USA.gov is the U.S. government's official web portal to all federal, state and local government web resources and services.